Thailine 5 — 9WFF5 — position and weather

sailwx.info

Track history (hours):
 
Tides and Currents Weather Stations Pressure Air Temp Water Temp Dewpoint Dewpoint Depression Visibility Wind Speed Wind Dir Waves Ship Positions

Thailine 5

Last reported at 2016-Jan-13 09:27 UTC. Time now 2016-Feb-05 22:23 UTC.
Position N 34°00' E 134°54'.
Warning: this ship's position is 23 days out of date.

Length 98 m; draft 4.6 m.

Type: Cargo ship. MMSI: 533399000.

Date/timePositionNaut miles runAvg speedWind from/ knotsBaromVisibWave heightAir tempDewpointWater temp
2016-Jan-13 09:27N 34°00' E 134°54'9 9.9
2016-Jan-13 08:32N 34°09' E 134°57'1111.0
2016-Jan-13 07:30N 34°20' E 134°60'9 9.8
2016-Jan-13 06:33N 34°26' E 135°08'9 8.8
2016-Jan-13 05:33N 34°31' E 135°17'5 4.3
2016-Jan-13 04:25N 34°31' E 135°23'0 0.0
2016-Jan-13 03:31N 34°31' E 135°23'0 0.0
2016-Jan-13 02:31N 34°31' E 135°23'0 0.0
2016-Jan-13 01:31N 34°31' E 135°23'0 0.0
2016-Jan-13 00:31N 34°31' E 135°23'0 0.0
2016-Jan-12 23:31N 34°31' E 135°23'0 0.0
2016-Jan-12 22:31N 34°31' E 135°23'0 0.0
2016-Jan-12 21:13N 34°31' E 135°23'0 0.0
2016-Jan-12 20:31N 34°31' E 135°23'0 0.0
2016-Jan-12 19:25N 34°31' E 135°23'0 0.0
2016-Jan-12 18:25N 34°31' E 135°23'0 0.0
2016-Jan-12 17:31N 34°31' E 135°23'0 0.0
2016-Jan-12 16:25N 34°31' E 135°23'0 0.0
2016-Jan-12 15:31N 34°31' E 135°23'0 0.0
2016-Jan-12 14:31N 34°31' E 135°23'0 0.0
2016-Jan-12 13:31N 34°31' E 135°23'0 0.0
2016-Jan-12 12:31N 34°31' E 135°23'0 0.0
2016-Jan-12 11:25N 34°31' E 135°23'0 0.0
2016-Jan-12 10:25N 34°31' E 135°23'0 0.0
2016-Jan-12 09:31N 34°31' E 135°23'0 0.0
2016-Jan-12 08:31N 34°31' E 135°23'0 0.0
2016-Jan-12 07:19N 34°31' E 135°23'0 0.0
2016-Jan-12 05:31N 34°31' E 135°23'0 0.0
2016-Jan-12 04:31N 34°31' E 135°23'0 0.0
2016-Jan-12 03:31N 34°31' E 135°23'0 0.0
2016-Jan-12 02:07N 34°31' E 135°23'0 0.0
2016-Jan-12 01:31N 34°31' E 135°23'0 0.0
2016-Jan-12 00:31N 34°31' E 135°23'0 0.0
2016-Jan-11 23:19N 34°31' E 135°23'0 0.0
2016-Jan-11 22:31N 34°31' E 135°23'0 0.0
2016-Jan-11 19:07N 34°31' E 135°23'0 0.0
2016-Jan-11 18:25N 34°31' E 135°23'0 0.0
2016-Jan-11 16:31N 34°31' E 135°23'0 0.0
2016-Jan-11 15:31N 34°31' E 135°23'0 0.0
2016-Jan-11 14:31N 34°31' E 135°23'0 0.0
2016-Jan-11 13:31N 34°31' E 135°23'0 0.0
2016-Jan-11 12:31N 34°31' E 135°23'0 0.0
2016-Jan-11 10:31N 34°31' E 135°23'0 0.0
2016-Jan-11 08:31N 34°31' E 135°23'0 0.0
2016-Jan-11 07:13N 34°31' E 135°23'0 0.0
2016-Jan-11 05:25N 34°31' E 135°23'0 0.0
2016-Jan-11 04:19N 34°31' E 135°23'0 0.0
2016-Jan-11 02:25N 34°31' E 135°23'0 0.0
2016-Jan-11 01:19N 34°31' E 135°23'0 0.0
2016-Jan-11 00:25N 34°31' E 135°23'0 0.0
2016-Jan-10 23:31N 34°31' E 135°23'0 0.0
2016-Jan-10 22:31N 34°31' E 135°23'0 0.0
2016-Jan-10 21:31N 34°31' E 135°23'0 0.0
2016-Jan-10 20:25N 34°31' E 135°23'0 0.0
2016-Jan-10 19:31N 34°31' E 135°23'0 0.0
2016-Jan-10 18:31N 34°31' E 135°23'0 0.0
2016-Jan-10 17:31N 34°31' E 135°23'0 0.0
2016-Jan-10 16:13N 34°31' E 135°23'0 0.0
2016-Jan-10 15:31N 34°31' E 135°23'0 0.0
2016-Jan-10 14:31N 34°31' E 135°23'0 0.0
2016-Jan-10 13:25N 34°31' E 135°23'0 0.0
2016-Jan-10 12:31N 34°31' E 135°23'0 0.0
2016-Jan-10 11:31N 34°31' E 135°23'0 0.0
2016-Jan-10 10:31N 34°31' E 135°23'0 0.0
2016-Jan-10 09:31N 34°31' E 135°23'0 0.0
2016-Jan-10 08:25N 34°31' E 135°23'0 0.0
2016-Jan-10 07:31N 34°31' E 135°23'0 0.0
2016-Jan-10 06:31N 34°31' E 135°23'0 0.0
2016-Jan-10 05:31N 34°31' E 135°23'0 0.0
2016-Jan-10 04:25N 34°31' E 135°23'0 0.0
2016-Jan-10 03:31N 34°31' E 135°23'0 0.0
2016-Jan-10 02:31N 34°31' E 135°23'0 0.1
2016-Jan-10 01:31N 34°31' E 135°23'4 4.2
2016-Jan-10 00:33N 34°31' E 135°18'1110.7
2016-Jan-09 23:32N 34°25' E 135°07'7 7.2
2016-Jan-09 22:34N 34°20' E 135°01'1211.6
2016-Jan-09 21:33N 34°09' E 134°59'1110.5
2016-Jan-09 20:30N 33°58' E 134°59'175 7.2
2016-Jan-08 20:17N 34°26' E 138°28'59 6.7
2016-Jan-08 11:23N 34°59' E 139°28'8 9.7
2016-Jan-08 10:32N 35°03' E 139°37'9 9.5
2016-Jan-08 09:32N 35°09' E 139°45'1010.5
2016-Jan-08 08:33N 35°19' E 139°43'7 6.9
2016-Jan-08 07:34N 35°25' E 139°48'5 4.7
2016-Jan-08 06:25N 35°22' E 139°53'0 0.0
2016-Jan-08 05:25N 35°22' E 139°53'0 0.0
2016-Jan-08 04:31N 35°22' E 139°53'0 0.0
2016-Jan-08 03:31N 35°22' E 139°53'0 0.0
2016-Jan-08 02:31N 35°22' E 139°53'0 0.0
2016-Jan-08 01:31N 35°22' E 139°53'0 0.0
2016-Jan-08 00:31N 35°22' E 139°53'0 0.0
2016-Jan-07 23:31N 35°22' E 139°53'0 0.0
2016-Jan-07 22:31N 35°22' E 139°53'0 0.0
2016-Jan-07 21:31N 35°22' E 139°53'0 0.0
2016-Jan-07 20:31N 35°22' E 139°53'0 0.0
2016-Jan-07 19:31N 35°22' E 139°53'0 0.0
2016-Jan-07 18:31N 35°22' E 139°53'0 0.0
2016-Jan-07 17:31N 35°22' E 139°53'0 0.0
2016-Jan-07 16:31N 35°22' E 139°53'0 0.0
2016-Jan-07 15:31N 35°22' E 139°53'0 0.0
2016-Jan-07 14:31N 35°22' E 139°53'0 0.0
2016-Jan-07 13:31N 35°22' E 139°53'0 0.0
2016-Jan-07 12:31N 35°22' E 139°53'0 0.0
2016-Jan-07 11:31N 35°22' E 139°53'0 0.0
2016-Jan-07 10:25N 35°22' E 139°53'0 0.0
2016-Jan-07 09:31N 35°22' E 139°53'0 0.0
2016-Jan-07 08:31N 35°22' E 139°53'0 0.0
2016-Jan-07 07:31N 35°22' E 139°53'0 0.0
2016-Jan-07 06:19N 35°22' E 139°53'0 0.0
2016-Jan-07 05:19N 35°22' E 139°53'0 0.0
2016-Jan-07 04:28N 35°22' E 139°53'0 0.0
2016-Jan-07 03:25N 35°22' E 139°53'0 0.0
2016-Jan-07 02:31N 35°22' E 139°53'0 0.0
2016-Jan-07 01:31N 35°22' E 139°53'0 0.0
2016-Jan-07 00:19N 35°22' E 139°53'0 0.0
2016-Jan-06 23:31N 35°22' E 139°53'0 0.0
2016-Jan-06 22:31N 35°22' E 139°53'0 0.5
2016-Jan-06 21:33N 35°22' E 139°53'3 3.0
2016-Jan-06 20:33N 35°24' E 139°50'0 0.0
2016-Jan-06 19:34N 35°24' E 139°50'0 0.0
2016-Jan-06 18:34N 35°24' E 139°50'0 0.0
2016-Jan-06 17:31N 35°24' E 139°50'0 0.1
2016-Jan-06 16:34N 35°24' E 139°50'0 0.0
2016-Jan-06 15:28N 35°24' E 139°50'0 0.0
2016-Jan-06 14:28N 35°24' E 139°50'0 0.0
2016-Jan-06 13:34N 35°24' E 139°50'0 0.0
2016-Jan-06 12:34N 35°24' E 139°50'0 0.0
2016-Jan-06 11:31N 35°24' E 139°50'0 0.0
2016-Jan-06 10:31N 35°24' E 139°50'0 0.0
2016-Jan-06 09:34N 35°24' E 139°50'0 0.0
2016-Jan-06 08:31N 35°24' E 139°50'0 0.1
2016-Jan-06 07:33N 35°24' E 139°50'5 5.4
2016-Jan-06 06:34N 35°29' E 139°51'9 9.1
2016-Jan-06 05:33N 35°33' E 140°01'4 3.7
2016-Jan-06 04:22N 35°33' E 140°06'0 0.0
2016-Jan-06 03:28N 35°33' E 140°06'0 0.0
2016-Jan-06 02:28N 35°33' E 140°06'0 0.0
2016-Jan-06 01:28N 35°33' E 140°06'0 0.0
2016-Jan-06 00:28N 35°33' E 140°06'0 0.0
2016-Jan-05 23:19N 35°33' E 140°06'0 0.0
2016-Jan-05 22:22N 35°33' E 140°06'0 0.0
2016-Jan-05 21:31N 35°33' E 140°06'0 0.0
2016-Jan-05 20:22N 35°33' E 140°06'0 0.0
2016-Jan-05 19:31N 35°33' E 140°06'0 0.0
2016-Jan-05 18:28N 35°33' E 140°06'0 0.0
2016-Jan-05 17:28N 35°33' E 140°06'0 0.0
2016-Jan-05 16:22N 35°33' E 140°06'0 0.0
2016-Jan-05 15:22N 35°33' E 140°06'0 0.0
2016-Jan-05 14:28N 35°33' E 140°06'0 0.0
2016-Jan-05 13:10N 35°33' E 140°06'0 0.0
2016-Jan-05 12:22N 35°33' E 140°06'0 0.0
2016-Jan-05 11:28N 35°33' E 140°06'0 0.0
2016-Jan-05 10:28N 35°33' E 140°06'0 0.0
2016-Jan-05 09:28N 35°33' E 140°06'0 0.0
2016-Jan-05 08:10N 35°33' E 140°06'0 0.0
2016-Jan-05 07:28N 35°33' E 140°06'0 0.0
2016-Jan-05 06:22N 35°33' E 140°06'0 0.0
2016-Jan-05 05:28N 35°33' E 140°06'0 0.0
2016-Jan-05 04:22N 35°33' E 140°06'0 0.0
2016-Jan-05 03:28N 35°33' E 140°06'0 0.0
2016-Jan-05 02:22N 35°33' E 140°06'0 0.0
2016-Jan-05 01:28N 35°33' E 140°06'0 0.0
2016-Jan-05 00:22N 35°33' E 140°06'0 0.0
2016-Jan-04 23:25N 35°33' E 140°06'3 3.4
2016-Jan-04 22:33N 35°34' E 140°03'2 1.6
2016-Jan-04 21:32N 35°35' E 140°01'0 0.1
2016-Jan-04 20:29N 35°35' E 140°01'0 0.0
2016-Jan-04 19:29N 35°35' E 140°01'0 0.0
2016-Jan-04 18:29N 35°35' E 140°01'0 0.0
2016-Jan-04 17:17N 35°35' E 140°01'0 0.0
2016-Jan-04 16:29N 35°35' E 140°01'0 0.0
2016-Jan-04 15:29N 35°35' E 140°01'0 0.0
2016-Jan-04 14:29N 35°35' E 140°01'0 0.0
2016-Jan-04 13:29N 35°35' E 140°01'0 0.1
2016-Jan-04 12:29N 35°35' E 140°01'0 0.0
2016-Jan-04 11:29N 35°35' E 140°01'0 0.1
2016-Jan-04 10:29N 35°35' E 140°01'0 0.0
2016-Jan-04 09:17N 35°35' E 140°01'0 0.0
2016-Jan-04 08:23N 35°35' E 140°01'0 0.0
2016-Jan-04 07:29N 35°35' E 140°01'0 0.0
2016-Jan-04 06:29N 35°35' E 140°01'0 0.1
2016-Jan-04 05:29N 35°35' E 140°01'0 0.0
2016-Jan-04 04:29N 35°35' E 140°01'0 0.0
2016-Jan-04 03:23N 35°35' E 140°01'0 0.0
2016-Jan-04 02:17N 35°35' E 140°01'0 0.0
2016-Jan-04 01:29N 35°35' E 140°01'0 0.0
2016-Jan-04 00:17N 35°35' E 140°01'0 0.1
2016-Jan-03 23:29N 35°35' E 140°01'0 0.1
2016-Jan-03 22:29N 35°35' E 140°01'0 0.1
2016-Jan-03 21:32N 35°35' E 140°01'0 0.0
2016-Jan-03 20:23N 35°35' E 140°01'0 0.0
2016-Jan-03 19:29N 35°35' E 140°01'0 0.0
2016-Jan-03 18:23N 35°35' E 140°01'0 0.1
2016-Jan-03 17:29N 35°35' E 140°01'0 0.0
2016-Jan-03 16:29N 35°35' E 140°01'0 0.0
2016-Jan-03 15:29N 35°35' E 140°01'0 0.1
2016-Jan-03 14:29N 35°35' E 140°01'0 0.0
2016-Jan-03 13:29N 35°35' E 140°01'0 0.0
2016-Jan-03 12:29N 35°35' E 140°01'0 0.1
2016-Jan-03 11:23N 35°35' E 140°01'0 0.1
2016-Jan-03 10:32N 35°35' E 140°01'0 0.1
2016-Jan-03 09:29N 35°35' E 140°01'  
Track history (hours):
 
Tides and Currents Weather Stations Pressure Air Temp Water Temp Dewpoint Dewpoint Depression Visibility Wind Speed Wind Dir Waves Ship Positions

Thailine 5

Last reported at 2016-Jan-13 09:27 UTC. Time now 2016-Feb-05 22:23 UTC.
Position N 34°00' E 134°54'.
Warning: this ship's position is 23 days out of date.

Length 98 m; draft 4.6 m.

Type: Cargo ship. MMSI: 533399000.

Date/timePositionNaut miles runAvg speedWind from/ knotsBaromVisibWave heightAir tempDewpointWater temp
2016-Jan-13 09:27N 34°00' E 134°54'9 9.9
2016-Jan-13 08:32N 34°09' E 134°57'1111.0
2016-Jan-13 07:30N 34°20' E 134°60'9 9.8
2016-Jan-13 06:33N 34°26' E 135°08'9 8.8
2016-Jan-13 05:33N 34°31' E 135°17'5 4.3
2016-Jan-13 04:25N 34°31' E 135°23'0 0.0
2016-Jan-13 03:31N 34°31' E 135°23'0 0.0
2016-Jan-13 02:31N 34°31' E 135°23'0 0.0
2016-Jan-13 01:31N 34°31' E 135°23'0 0.0
2016-Jan-13 00:31N 34°31' E 135°23'0 0.0
2016-Jan-12 23:31N 34°31' E 135°23'0 0.0
2016-Jan-12 22:31N 34°31' E 135°23'0 0.0
2016-Jan-12 21:13N 34°31' E 135°23'0 0.0
2016-Jan-12 20:31N 34°31' E 135°23'0 0.0
2016-Jan-12 19:25N 34°31' E 135°23'0 0.0
2016-Jan-12 18:25N 34°31' E 135°23'0 0.0
2016-Jan-12 17:31N 34°31' E 135°23'0 0.0
2016-Jan-12 16:25N 34°31' E 135°23'0 0.0
2016-Jan-12 15:31N 34°31' E 135°23'0 0.0
2016-Jan-12 14:31N 34°31' E 135°23'0 0.0
2016-Jan-12 13:31N 34°31' E 135°23'0 0.0
2016-Jan-12 12:31N 34°31' E 135°23'0 0.0
2016-Jan-12 11:25N 34°31' E 135°23'0 0.0
2016-Jan-12 10:25N 34°31' E 135°23'0 0.0
2016-Jan-12 09:31N 34°31' E 135°23'0 0.0
2016-Jan-12 08:31N 34°31' E 135°23'0 0.0
2016-Jan-12 07:19N 34°31' E 135°23'0 0.0
2016-Jan-12 05:31N 34°31' E 135°23'0 0.0
2016-Jan-12 04:31N 34°31' E 135°23'0 0.0
2016-Jan-12 03:31N 34°31' E 135°23'0 0.0
2016-Jan-12 02:07N 34°31' E 135°23'0 0.0
2016-Jan-12 01:31N 34°31' E 135°23'0 0.0
2016-Jan-12 00:31N 34°31' E 135°23'0 0.0
2016-Jan-11 23:19N 34°31' E 135°23'0 0.0
2016-Jan-11 22:31N 34°31' E 135°23'0 0.0
2016-Jan-11 19:07N 34°31' E 135°23'0 0.0
2016-Jan-11 18:25N 34°31' E 135°23'0 0.0
2016-Jan-11 16:31N 34°31' E 135°23'0 0.0
2016-Jan-11 15:31N 34°31' E 135°23'0 0.0
2016-Jan-11 14:31N 34°31' E 135°23'0 0.0
2016-Jan-11 13:31N 34°31' E 135°23'0 0.0
2016-Jan-11 12:31N 34°31' E 135°23'0 0.0
2016-Jan-11 10:31N 34°31' E 135°23'0 0.0
2016-Jan-11 08:31N 34°31' E 135°23'0 0.0
2016-Jan-11 07:13N 34°31' E 135°23'0 0.0
2016-Jan-11 05:25N 34°31' E 135°23'0 0.0
2016-Jan-11 04:19N 34°31' E 135°23'0 0.0
2016-Jan-11 02:25N 34°31' E 135°23'0 0.0
2016-Jan-11 01:19N 34°31' E 135°23'0 0.0
2016-Jan-11 00:25N 34°31' E 135°23'0 0.0
2016-Jan-10 23:31N 34°31' E 135°23'0 0.0
2016-Jan-10 22:31N 34°31' E 135°23'0 0.0
2016-Jan-10 21:31N 34°31' E 135°23'0 0.0
2016-Jan-10 20:25N 34°31' E 135°23'0 0.0
2016-Jan-10 19:31N 34°31' E 135°23'0 0.0
2016-Jan-10 18:31N 34°31' E 135°23'0 0.0
2016-Jan-10 17:31N 34°31' E 135°23'0 0.0
2016-Jan-10 16:13N 34°31' E 135°23'0 0.0
2016-Jan-10 15:31N 34°31' E 135°23'0 0.0
2016-Jan-10 14:31N 34°31' E 135°23'0 0.0
2016-Jan-10 13:25N 34°31' E 135°23'0 0.0
2016-Jan-10 12:31N 34°31' E 135°23'0 0.0
2016-Jan-10 11:31N 34°31' E 135°23'0 0.0
2016-Jan-10 10:31N 34°31' E 135°23'0 0.0
2016-Jan-10 09:31N 34°31' E 135°23'0 0.0
2016-Jan-10 08:25N 34°31' E 135°23'0 0.0
2016-Jan-10 07:31N 34°31' E 135°23'0 0.0
2016-Jan-10 06:31N 34°31' E 135°23'0 0.0
2016-Jan-10 05:31N 34°31' E 135°23'0 0.0
2016-Jan-10 04:25N 34°31' E 135°23'0 0.0
2016-Jan-10 03:31N 34°31' E 135°23'0 0.0
2016-Jan-10 02:31N 34°31' E 135°23'0 0.1
2016-Jan-10 01:31N 34°31' E 135°23'4 4.2
2016-Jan-10 00:33N 34°31' E 135°18'1110.7
2016-Jan-09 23:32N 34°25' E 135°07'7 7.2
2016-Jan-09 22:34N 34°20' E 135°01'1211.6
2016-Jan-09 21:33N 34°09' E 134°59'1110.5
2016-Jan-09 20:30N 33°58' E 134°59'175 7.2
2016-Jan-08 20:17N 34°26' E 138°28'59 6.7
2016-Jan-08 11:23N 34°59' E 139°28'8 9.7
2016-Jan-08 10:32N 35°03' E 139°37'9 9.5
2016-Jan-08 09:32N 35°09' E 139°45'1010.5
2016-Jan-08 08:33N 35°19' E 139°43'7 6.9
2016-Jan-08 07:34N 35°25' E 139°48'5 4.7
2016-Jan-08 06:25N 35°22' E 139°53'0 0.0
2016-Jan-08 05:25N 35°22' E 139°53'0 0.0
2016-Jan-08 04:31N 35°22' E 139°53'0 0.0
2016-Jan-08 03:31N 35°22' E 139°53'0 0.0
2016-Jan-08 02:31N 35°22' E 139°53'0 0.0
2016-Jan-08 01:31N 35°22' E 139°53'0 0.0
2016-Jan-08 00:31N 35°22' E 139°53'0 0.0
2016-Jan-07 23:31N 35°22' E 139°53'0 0.0
2016-Jan-07 22:31N 35°22' E 139°53'0 0.0
2016-Jan-07 21:31N 35°22' E 139°53'0 0.0
2016-Jan-07 20:31N 35°22' E 139°53'0 0.0
2016-Jan-07 19:31N 35°22' E 139°53'0 0.0
2016-Jan-07 18:31N 35°22' E 139°53'0 0.0
2016-Jan-07 17:31N 35°22' E 139°53'0 0.0
2016-Jan-07 16:31N 35°22' E 139°53'0 0.0
2016-Jan-07 15:31N 35°22' E 139°53'0 0.0
2016-Jan-07 14:31N 35°22' E 139°53'0 0.0
2016-Jan-07 13:31N 35°22' E 139°53'0 0.0
2016-Jan-07 12:31N 35°22' E 139°53'0 0.0
2016-Jan-07 11:31N 35°22' E 139°53'0 0.0
2016-Jan-07 10:25N 35°22' E 139°53'0 0.0
2016-Jan-07 09:31N 35°22' E 139°53'0 0.0
2016-Jan-07 08:31N 35°22' E 139°53'0 0.0
2016-Jan-07 07:31N 35°22' E 139°53'0 0.0
2016-Jan-07 06:19N 35°22' E 139°53'0 0.0
2016-Jan-07 05:19N 35°22' E 139°53'0 0.0
2016-Jan-07 04:28N 35°22' E 139°53'0 0.0
2016-Jan-07 03:25N 35°22' E 139°53'0 0.0
2016-Jan-07 02:31N 35°22' E 139°53'0 0.0
2016-Jan-07 01:31N 35°22' E 139°53'0 0.0
2016-Jan-07 00:19N 35°22' E 139°53'0 0.0
2016-Jan-06 23:31N 35°22' E 139°53'0 0.0
2016-Jan-06 22:31N 35°22' E 139°53'0 0.5
2016-Jan-06 21:33N 35°22' E 139°53'3 3.0
2016-Jan-06 20:33N 35°24' E 139°50'0 0.0
2016-Jan-06 19:34N 35°24' E 139°50'0 0.0
2016-Jan-06 18:34N 35°24' E 139°50'0 0.0
2016-Jan-06 17:31N 35°24' E 139°50'0 0.1
2016-Jan-06 16:34N 35°24' E 139°50'0 0.0
2016-Jan-06 15:28N 35°24' E 139°50'0 0.0
2016-Jan-06 14:28N 35°24' E 139°50'0 0.0
2016-Jan-06 13:34N 35°24' E 139°50'0 0.0
2016-Jan-06 12:34N 35°24' E 139°50'0 0.0
2016-Jan-06 11:31N 35°24' E 139°50'0 0.0
2016-Jan-06 10:31N 35°24' E 139°50'0 0.0
2016-Jan-06 09:34N 35°24' E 139°50'0 0.0
2016-Jan-06 08:31N 35°24' E 139°50'0 0.1
2016-Jan-06 07:33N 35°24' E 139°50'5 5.4
2016-Jan-06 06:34N 35°29' E 139°51'9 9.1
2016-Jan-06 05:33N 35°33' E 140°01'4 3.7
2016-Jan-06 04:22N 35°33' E 140°06'0 0.0
2016-Jan-06 03:28N 35°33' E 140°06'0 0.0
2016-Jan-06 02:28N 35°33' E 140°06'0 0.0
2016-Jan-06 01:28N 35°33' E 140°06'0 0.0
2016-Jan-06 00:28N 35°33' E 140°06'0 0.0
2016-Jan-05 23:19N 35°33' E 140°06'0 0.0
2016-Jan-05 22:22N 35°33' E 140°06'0 0.0
2016-Jan-05 21:31N 35°33' E 140°06'0 0.0
2016-Jan-05 20:22N 35°33' E 140°06'0 0.0
2016-Jan-05 19:31N 35°33' E 140°06'0 0.0
2016-Jan-05 18:28N 35°33' E 140°06'0 0.0
2016-Jan-05 17:28N 35°33' E 140°06'0 0.0
2016-Jan-05 16:22N 35°33' E 140°06'0 0.0
2016-Jan-05 15:22N 35°33' E 140°06'0 0.0
2016-Jan-05 14:28N 35°33' E 140°06'0 0.0
2016-Jan-05 13:10N 35°33' E 140°06'0 0.0
2016-Jan-05 12:22N 35°33' E 140°06'0 0.0
2016-Jan-05 11:28N 35°33' E 140°06'0 0.0
2016-Jan-05 10:28N 35°33' E 140°06'0 0.0
2016-Jan-05 09:28N 35°33' E 140°06'0 0.0
2016-Jan-05 08:10N 35°33' E 140°06'0 0.0
2016-Jan-05 07:28N 35°33' E 140°06'0 0.0
2016-Jan-05 06:22N 35°33' E 140°06'0 0.0
2016-Jan-05 05:28N 35°33' E 140°06'0 0.0
2016-Jan-05 04:22N 35°33' E 140°06'0 0.0
2016-Jan-05 03:28N 35°33' E 140°06'0 0.0
2016-Jan-05 02:22N 35°33' E 140°06'0 0.0
2016-Jan-05 01:28N 35°33' E 140°06'0 0.0
2016-Jan-05 00:22N 35°33' E 140°06'0 0.0
2016-Jan-04 23:25N 35°33' E 140°06'3 3.4
2016-Jan-04 22:33N 35°34' E 140°03'2 1.6
2016-Jan-04 21:32N 35°35' E 140°01'0 0.1
2016-Jan-04 20:29N 35°35' E 140°01'0 0.0
2016-Jan-04 19:29N 35°35' E 140°01'0 0.0
2016-Jan-04 18:29N 35°35' E 140°01'0 0.0
2016-Jan-04 17:17N 35°35' E 140°01'0 0.0
2016-Jan-04 16:29N 35°35' E 140°01'0 0.0
2016-Jan-04 15:29N 35°35' E 140°01'0 0.0
2016-Jan-04 14:29N 35°35' E 140°01'0 0.0
2016-Jan-04 13:29N 35°35' E 140°01'0 0.1
2016-Jan-04 12:29N 35°35' E 140°01'0 0.0
2016-Jan-04 11:29N 35°35' E 140°01'0 0.1
2016-Jan-04 10:29N 35°35' E 140°01'0 0.0
2016-Jan-04 09:17N 35°35' E 140°01'0 0.0
2016-Jan-04 08:23N 35°35' E 140°01'0 0.0
2016-Jan-04 07:29N 35°35' E 140°01'0 0.0
2016-Jan-04 06:29N 35°35' E 140°01'0 0.1
2016-Jan-04 05:29N 35°35' E 140°01'0 0.0
2016-Jan-04 04:29N 35°35' E 140°01'0 0.0
2016-Jan-04 03:23N 35°35' E 140°01'0 0.0
2016-Jan-04 02:17N 35°35' E 140°01'0 0.0
2016-Jan-04 01:29N 35°35' E 140°01'0 0.0
2016-Jan-04 00:17N 35°35' E 140°01'0 0.1
2016-Jan-03 23:29N 35°35' E 140°01'0 0.1
2016-Jan-03 22:29N 35°35' E 140°01'0 0.1
2016-Jan-03 21:32N 35°35' E 140°01'0 0.0
2016-Jan-03 20:23N 35°35' E 140°01'0 0.0
2016-Jan-03 19:29N 35°35' E 140°01'0 0.0
2016-Jan-03 18:23N 35°35' E 140°01'0 0.1
2016-Jan-03 17:29N 35°35' E 140°01'0 0.0
2016-Jan-03 16:29N 35°35' E 140°01'0 0.0
2016-Jan-03 15:29N 35°35' E 140°01'0 0.1
2016-Jan-03 14:29N 35°35' E 140°01'0 0.0
2016-Jan-03 13:29N 35°35' E 140°01'0 0.0
2016-Jan-03 12:29N 35°35' E 140°01'0 0.1
2016-Jan-03 11:23N 35°35' E 140°01'0 0.1
2016-Jan-03 10:32N 35°35' E 140°01'0 0.1
2016-Jan-03 09:29N 35°35' E 140°01'  

Dump ship's entire track history